Time;durP1;ratioP1;P1;durP2;ratioP2;P2;SDS_P1;SDS_P2;PMS_P1;PMS_P2;Temp;Humidity;BMP_temperature;BMP_pressure;BME280_temperature;BME280_humidity;BME280_pressure;Samples;Min_cycle;Max_cycle;Signal;HPM_P1;HPM_P2
2021/01/31 00:00:28;;;;;;;14.53;12.63;;;;;;;0.28;100.00;94155.00;1054291;28;20392;-70
2021/01/31 00:00:58;;;;;;;15.82;13.30;;;;;;;0.23;100.00;94157.59;1052558;28;20028;-70
2021/01/31 00:01:32;;;;;;;14.40;12.07;;;;;;;0.25;100.00;94150.25;1052174;28;20503;-70
2021/01/31 00:02:03;;;;;;;14.60;12.38;;;;;;;0.24;100.00;94151.28;1052421;28;20070;-70
2021/01/31 00:02:33;;;;;;;14.20;12.10;;;;;;;0.21;100.00;94149.97;1052452;28;20086;-71
2021/01/31 00:03:05;;;;;;;15.17;12.67;;;;;;;0.19;100.00;94162.53;1049559;28;20020;-70
2021/01/31 00:03:35;;;;;;;14.77;12.38;;;;;;;0.21;100.00;94151.81;1053206;28;20181;-71
2021/01/31 00:04:06;;;;;;;15.90;13.07;;;;;;;0.19;100.00;94156.50;1049151;28;20017;-71
2021/01/31 00:04:36;;;;;;;14.90;12.57;;;;;;;0.20;100.00;94158.88;1049221;28;20084;-71
2021/01/31 00:05:07;;;;;;;13.83;12.17;;;;;;;0.21;100.00;94160.47;1053629;28;20024;-70
2021/01/31 00:05:38;;;;;;;14.82;12.57;;;;;;;0.18;100.00;94152.28;1053908;28;20086;-71
2021/01/31 00:06:08;;;;;;;14.13;12.40;;;;;;;0.18;100.00;94162.81;1055401;28;20028;-71
2021/01/31 00:06:39;;;;;;;15.50;13.03;;;;;;;0.18;100.00;94153.09;1054983;28;20327;-69
2021/01/31 00:07:09;;;;;;;16.17;13.47;;;;;;;0.18;100.00;94158.34;1053294;28;20098;-70
2021/01/31 00:07:40;;;;;;;14.80;12.83;;;;;;;0.18;100.00;94157.53;1053964;28;20043;-70
2021/01/31 00:08:11;;;;;;;15.27;12.87;;;;;;;0.20;100.00;94155.44;1054475;28;20020;-71
2021/01/31 00:08:42;;;;;;;14.55;12.68;;;;;;;0.22;100.00;94159.44;1052625;28;20020;-70
2021/01/31 00:09:12;;;;;;;16.43;13.33;;;;;;;0.23;100.00;94161.00;1052580;28;20028;-70
2021/01/31 00:09:43;;;;;;;15.27;12.90;;;;;;;0.27;100.00;94160.53;1052770;28;20039;-70
2021/01/31 00:10:14;;;;;;;15.17;13.03;;;;;;;0.30;100.00;94160.78;1052426;28;20396;-71
2021/01/31 00:10:45;;;;;;;13.85;12.35;;;;;;;0.24;100.00;94159.97;1052378;28;20034;-71
2021/01/31 00:11:17;;;;;;;15.63;13.20;;;;;;;0.27;100.00;94163.94;1052217;28;20536;-69
2021/01/31 00:11:47;;;;;;;16.05;13.45;;;;;;;0.29;100.00;94156.59;1052232;28;20168;-69
2021/01/31 00:12:18;;;;;;;15.50;13.30;;;;;;;0.24;100.00;94162.59;1052641;28;20491;-69
2021/01/31 00:12:48;;;;;;;15.67;13.63;;;;;;;0.27;100.00;94161.31;1052620;28;20042;-70
2021/01/31 00:13:19;;;;;;;14.97;13.03;;;;;;;0.21;100.00;94157.84;1052586;28;20048;-70
2021/01/31 00:13:50;;;;;;;14.80;12.30;;;;;;;0.22;100.00;94161.28;1052772;28;20023;-70
2021/01/31 00:14:20;;;;;;;16.10;13.57;;;;;;;0.19;100.00;94162.53;1052563;28;20559;-69
2021/01/31 00:14:51;;;;;;;15.30;12.90;;;;;;;0.23;100.00;94157.59;1052442;28;20376;-69
2021/01/31 00:15:23;;;;;;;14.57;12.17;;;;;;;0.20;100.00;94165.97;1052616;28;20411;-69
2021/01/31 00:15:54;;;;;;;13.98;12.43;;;;;;;0.19;100.00;94165.16;1052563;28;20467;-69
2021/01/31 00:16:24;;;;;;;15.00;12.60;;;;;;;0.16;100.00;94160.44;1052783;28;20078;-70
2021/01/31 00:16:54;;;;;;;14.43;12.53;;;;;;;0.17;100.00;94161.22;1052595;28;20012;-69
2021/01/31 00:17:25;;;;;;;16.33;12.97;;;;;;;0.19;100.00;94162.53;1052688;28;20541;-70
2021/01/31 00:17:55;;;;;;;15.63;12.93;;;;;;;0.19;100.00;94164.38;1052633;28;20069;-70
2021/01/31 00:18:28;;;;;;;14.40;12.43;;;;;;;0.21;100.00;94157.06;1052635;28;20462;-70
2021/01/31 00:18:58;;;;;;;14.80;12.13;;;;;;;0.19;100.00;94164.38;1052487;28;20016;-69
2021/01/31 00:19:29;;;;;;;14.70;12.87;;;;;;;0.19;100.00;94157.28;1052458;28;20020;-70
2021/01/31 00:19:59;;;;;;;14.73;12.60;;;;;;;0.23;100.00;94166.25;1052540;28;20020;-69
2021/01/31 00:20:33;;;;;;;16.00;12.53;;;;;;;0.21;100.00;94162.31;1052576;28;20024;-69
2021/01/31 00:21:03;;;;;;;15.23;11.98;;;;;;;0.18;100.00;94162.81;1052662;28;20020;-69
2021/01/31 00:21:34;;;;;;;14.83;12.97;;;;;;;0.19;100.00;94159.13;1052450;28;20016;-70
2021/01/31 00:22:04;;;;;;;16.10;13.67;;;;;;;0.21;100.00;94163.09;1052573;28;20028;-70
2021/01/31 00:22:35;;;;;;;15.95;13.73;;;;;;;0.21;100.00;94163.09;1052607;28;20107;-69
2021/01/31 00:23:06;;;;;;;14.87;13.27;;;;;;;0.26;100.00;94159.72;1052609;28;20023;-69
2021/01/31 00:23:36;;;;;;;14.83;11.77;;;;;;;0.21;100.00;94163.09;1052611;28;20020;-69
2021/01/31 00:24:07;;;;;;;15.23;13.00;;;;;;;0.18;100.00;94162.81;1052538;28;20027;-69
2021/01/31 00:24:38;;;;;;;15.93;13.83;;;;;;;0.19;100.00;94161.75;1052490;28;20039;-69
2021/01/31 00:25:09;;;;;;;14.00;12.50;;;;;;;0.24;100.00;94161.78;1052507;28;20414;-70
2021/01/31 00:25:39;;;;;;;15.05;13.07;;;;;;;0.24;100.00;94164.44;1052437;28;20030;-69
2021/01/31 00:26:10;;;;;;;15.30;13.33;;;;;;;0.26;100.00;94162.34;1052566;28;20474;-70
2021/01/31 00:26:40;;;;;;;15.07;12.90;;;;;;;0.30;100.00;94160.78;1052327;28;20016;-69
2021/01/31 00:27:11;;;;;;;13.80;12.23;;;;;;;0.29;100.00;94163.69;1052339;28;20028;-69
2021/01/31 00:27:41;;;;;;;16.10;14.03;;;;;;;0.32;100.00;94166.59;1052430;28;20033;-69
2021/01/31 00:28:12;;;;;;;16.23;12.63;;;;;;;0.24;100.00;94167.84;1052623;28;20016;-69
2021/01/31 00:28:42;;;;;;;16.27;13.40;;;;;;;0.27;100.00;94160.53;1052135;28;20012;-69
2021/01/31 00:29:13;;;;;;;15.57;13.40;;;;;;;0.29;100.00;94163.69;1052093;28;20016;-70
2021/01/31 00:29:43;;;;;;;16.80;13.47;;;;;;;0.24;100.00;94167.06;1052209;28;20021;-70
2021/01/31 00:30:45;;;;;;;16.13;13.63;;;;;;;0.26;100.00;94164.97;1043971;28;20021;-69
2021/01/31 00:31:15;;;;;;;14.77;12.60;;;;;;;0.28;100.00;94167.34;1048034;28;20071;-69
2021/01/31 00:31:47;;;;;;;13.37;11.97;;;;;;;0.29;100.00;94168.94;1048135;28;20496;-69
2021/01/31 00:32:24;;;;;;;16.67;13.40;;;;;;;0.23;100.00;94168.88;1052567;28;20032;-69
2021/01/31 00:32:55;;;;;;;15.57;13.07;;;;;;;0.27;100.00;94163.16;1052275;28;20563;-69
2021/01/31 00:33:26;;;;;;;14.13;12.43;;;;;;;0.26;100.00;94162.34;1052229;28;20012;-69
2021/01/31 00:33:56;;;;;;;15.60;12.52;;;;;;;0.21;100.00;94167.56;1052068;28;20025;-69
2021/01/31 00:34:27;;;;;;;13.67;11.67;;;;;;;0.23;100.00;94166.25;1052215;28;20024;-69
2021/01/31 00:34:57;;;;;;;15.13;12.90;;;;;;;0.25;100.00;94166.78;1052555;28;20028;-70
2021/01/31 00:35:28;;;;;;;16.30;13.83;;;;;;;0.23;100.00;94166.25;1052477;28;20031;-70
2021/01/31 00:35:59;;;;;;;15.53;13.33;;;;;;;0.23;100.00;94166.25;1052386;28;20384;-70
2021/01/31 00:36:29;;;;;;;15.07;13.37;;;;;;;0.25;100.00;94166.78;1052518;28;20089;-69
2021/01/31 00:37:00;;;;;;;16.00;13.90;;;;;;;0.27;100.00;94171.03;1052428;28;20031;-69
2021/01/31 00:37:30;;;;;;;16.03;14.33;;;;;;;0.25;100.00;94160.75;1052519;28;20031;-69
2021/01/31 00:38:01;;;;;;;16.63;14.50;;;;;;;0.24;100.00;94164.44;1052450;28;20020;-70
2021/01/31 00:38:31;;;;;;;15.23;13.33;;;;;;;0.27;100.00;94166.56;1052178;28;20097;-69
2021/01/31 00:39:01;;;;;;;15.70;14.00;;;;;;;0.32;100.00;94171.06;1052452;28;20073;-70
2021/01/31 00:39:32;;;;;;;16.33;13.57;;;;;;;0.28;100.00;94165.53;1052540;28;20032;-70
2021/01/31 00:40:03;;;;;;;15.73;13.50;;;;;;;0.28;100.00;94173.41;1052458;28;20020;-71
2021/01/31 00:40:34;;;;;;;19.92;13.30;;;;;;;0.27;100.00;94171.81;1052134;28;20028;-69
2021/01/31 00:41:04;;;;;;;16.27;13.30;;;;;;;0.31;100.00;94169.47;1052232;28;20017;-70
2021/01/31 00:41:35;;;;;;;15.33;13.67;;;;;;;0.29;100.00;94166.31;1052160;28;20081;-70
2021/01/31 00:42:05;;;;;;;17.70;14.52;;;;;;;0.31;100.00;94165.03;1052134;28;20020;-70
2021/01/31 00:42:36;;;;;;;15.57;13.53;;;;;;;0.33;100.00;94164.78;1052418;28;20020;-70
2021/01/31 00:43:06;;;;;;;20.40;14.00;;;;;;;0.35;100.00;94167.94;1052504;28;20020;-70
2021/01/31 00:43:37;;;;;;;15.73;12.93;;;;;;;0.28;100.00;94168.16;1052756;28;20043;-70
2021/01/31 00:44:07;;;;;;;15.70;14.00;;;;;;;0.27;100.00;94166.56;1052879;28;20099;-70
2021/01/31 00:44:37;;;;;;;16.10;13.80;;;;;;;0.25;100.00;94171.25;1052995;28;20032;-70
2021/01/31 00:45:10;;;;;;;15.73;13.77;;;;;;;0.21;100.00;94168.34;1052867;28;20057;-70
2021/01/31 00:45:40;;;;;;;15.82;13.73;;;;;;;0.21;100.00;94163.09;1053331;28;20431;-70
2021/01/31 00:46:11;;;;;;;16.57;14.20;;;;;;;0.24;100.00;94161.78;1052934;28;20049;-70
2021/01/31 00:46:41;;;;;;;15.70;13.27;;;;;;;0.30;100.00;94165.25;1052879;28;20024;-70
2021/01/31 00:47:12;;;;;;;16.70;14.17;;;;;;;0.32;100.00;94166.59;1052854;28;20012;-70
2021/01/31 00:47:42;;;;;;;19.03;14.07;;;;;;;0.34;100.00;94164.50;1052867;28;20016;-70
2021/01/31 00:48:13;;;;;;;17.23;14.30;;;;;;;0.34;100.00;94171.59;1053248;28;20012;-70
2021/01/31 00:48:43;;;;;;;16.77;14.63;;;;;;;0.36;100.00;94174.75;1053067;28;20372;-70
2021/01/31 00:49:14;;;;;;;16.50;14.30;;;;;;;0.35;100.00;94168.72;1053213;28;20020;-70
2021/01/31 00:49:44;;;;;;;16.60;13.70;;;;;;;0.38;100.00;94175.31;1053240;28;20415;-70
2021/01/31 00:50:16;;;;;;;17.70;14.37;;;;;;;0.37;100.00;94171.91;1053158;28;20024;-70
2021/01/31 00:50:47;;;;;;;16.10;14.05;;;;;;;0.39;100.00;94177.69;1053231;28;20059;-70
2021/01/31 00:51:17;;;;;;;14.63;12.60;;;;;;;0.45;100.00;94181.16;1053207;28;20047;-70
2021/01/31 00:51:48;;;;;;;16.03;14.00;;;;;;;0.35;100.00;94178.44;1053102;28;20043;-70
2021/01/31 00:52:21;;;;;;;14.90;13.17;;;;;;;0.38;100.00;94173.50;1053233;28;20074;-70
2021/01/31 00:52:52;;;;;;;14.63;13.02;;;;;;;0.36;100.00;94182.66;1052813;28;20469;-70
2021/01/31 00:53:22;;;;;;;18.33;14.00;;;;;;;0.39;100.00;94182.16;1052910;28;20066;-70
2021/01/31 00:53:53;;;;;;;14.13;12.43;;;;;;;0.39;100.00;94182.94;1052924;28;20027;-70
2021/01/31 00:54:23;;;;;;;14.87;12.50;;;;;;;0.34;100.00;94176.88;1052884;28;20488;-70
2021/01/31 00:54:53;;;;;;;16.43;14.03;;;;;;;0.35;100.00;94187.13;1053178;28;20019;-70
2021/01/31 00:55:24;;;;;;;15.37;13.73;;;;;;;0.38;100.00;94177.94;1053115;28;20024;-70
2021/01/31 00:55:54;;;;;;;15.83;13.53;;;;;;;0.41;100.00;94177.44;1053250;28;20020;-70
2021/01/31 00:56:25;;;;;;;15.93;13.60;;;;;;;0.42;100.00;94184.31;1053042;28;20028;-70
2021/01/31 00:56:56;;;;;;;14.27;12.18;;;;;;;0.41;100.00;94180.88;1053126;28;20024;-70
2021/01/31 00:57:26;;;;;;;14.33;12.40;;;;;;;0.38;100.00;94184.00;1052987;28;20096;-70
2021/01/31 00:57:56;;;;;;;15.50;13.37;;;;;;;0.38;100.00;94180.59;1053036;28;20070;-70
2021/01/31 00:58:27;;;;;;;14.93;12.67;;;;;;;0.37;100.00;94176.38;1053199;28;20023;-70
2021/01/31 00:58:57;;;;;;;14.80;13.10;;;;;;;0.34;100.00;94180.28;1050407;28;20024;-70
2021/01/31 00:59:28;;;;;;;15.93;13.70;;;;;;;0.36;100.00;94180.03;1048997;28;20024;-70
2021/01/31 00:59:58;;;;;;;15.60;13.47;;;;;;;0.40;100.00;94183.75;1049004;28;20481;-69
2021/01/31 01:00:30;;;;;;;17.67;12.90;;;;;;;0.39;100.00;94188.22;1049549;28;20029;-70
2021/01/31 01:01:01;;;;;;;14.45;12.65;;;;;;;0.38;100.00;94181.38;1053122;28;20028;-70
2021/01/31 01:01:31;;;;;;;16.27;12.80;;;;;;;0.37;100.00;94186.88;1052965;28;20048;-69
2021/01/31 01:02:05;;;;;;;15.33;13.50;;;;;;;0.33;100.00;94181.31;1053125;28;20024;-69
2021/01/31 01:02:36;;;;;;;16.13;12.82;;;;;;;0.34;100.00;94182.13;1053263;28;20419;-70
2021/01/31 01:03:07;;;;;;;15.67;13.77;;;;;;;0.37;100.00;94177.16;1052841;28;20028;-70
2021/01/31 01:03:37;;;;;;;14.10;12.57;;;;;;;0.40;100.00;94183.75;1052989;28;20020;-70
2021/01/31 01:04:08;;;;;;;15.70;13.47;;;;;;;0.44;100.00;94182.19;1053173;28;20030;-70
2021/01/31 01:04:38;;;;;;;17.37;13.77;;;;;;;0.43;100.00;94181.41;1053202;28;20039;-70
2021/01/31 01:05:09;;;;;;;14.80;12.70;;;;;;;0.45;100.00;94178.53;1052958;28;20016;-69
2021/01/31 01:05:40;;;;;;;16.17;13.00;;;;;;;0.36;100.00;94180.84;1051454;28;20021;-70
2021/01/31 01:06:10;;;;;;;16.47;13.90;;;;;;;0.41;100.00;94180.06;1052845;28;20024;-70
2021/01/31 01:06:40;;;;;;;14.83;12.80;;;;;;;0.42;100.00;94189.56;1052993;28;20024;-68
2021/01/31 01:07:11;;;;;;;16.73;13.93;;;;;;;0.37;100.00;94182.41;1052607;28;20044;-68
2021/01/31 01:07:42;;;;;;;15.23;12.80;;;;;;;0.29;100.00;94177.59;1050621;28;20101;-68
2021/01/31 01:08:13;;;;;;;15.52;13.00;;;;;;;0.28;100.00;94188.38;1053162;28;20039;-68
2021/01/31 01:08:43;;;;;;;15.97;13.67;;;;;;;0.30;100.00;94183.66;1050118;28;20047;-68
2021/01/31 01:09:13;;;;;;;15.27;12.67;;;;;;;0.25;100.00;94179.13;1048908;28;20027;-68
2021/01/31 01:09:45;;;;;;;15.50;13.33;;;;;;;0.22;100.00;94187.53;1049827;28;20516;-68
2021/01/31 01:10:17;;;;;;;16.48;13.75;;;;;;;0.23;100.00;94189.13;1052831;28;20063;-68
2021/01/31 01:10:48;;;;;;;17.52;15.27;;;;;;;0.24;100.00;94190.69;1052775;28;20476;-68
2021/01/31 01:11:18;;;;;;;18.53;14.60;;;;;;;0.23;100.00;94187.28;1052770;28;20039;-68
2021/01/31 01:11:48;;;;;;;17.20;14.80;;;;;;;0.19;100.00;94188.81;1052591;28;20427;-68
2021/01/31 01:12:19;;;;;;;17.93;15.03;;;;;;;0.19;100.00;94191.44;1052688;28;20446;-68
2021/01/31 01:12:49;;;;;;;20.00;15.90;;;;;;;0.24;100.00;94188.88;1052852;28;20370;-68
2021/01/31 01:13:20;;;;;;;16.63;14.23;;;;;;;0.24;100.00;94186.22;1052343;28;20074;-68
2021/01/31 01:13:50;;;;;;;16.60;14.63;;;;;;;0.24;100.00;94190.69;1052531;28;20020;-69
2021/01/31 01:14:20;;;;;;;17.27;14.23;;;;;;;0.23;100.00;94192.53;1052502;28;20031;-69
2021/01/31 01:14:51;;;;;;;15.50;13.80;;;;;;;0.29;100.00;94195.22;1052630;28;20016;-68
2021/01/31 01:15:24;;;;;;;16.10;13.90;;;;;;;0.28;100.00;94191.00;1052783;28;20012;-69
2021/01/31 01:15:55;;;;;;;15.75;14.05;;;;;;;0.28;100.00;94191.00;1052806;28;20479;-69
2021/01/31 01:16:25;;;;;;;17.13;14.97;;;;;;;0.28;100.00;94193.63;1052867;28;20016;-68
2021/01/31 01:16:56;;;;;;;17.43;15.43;;;;;;;0.31;100.00;94186.06;1052861;28;20020;-68
2021/01/31 01:17:26;;;;;;;18.10;15.87;;;;;;;0.36;100.00;94188.72;1052178;28;20016;-68
2021/01/31 01:17:57;;;;;;;18.37;12.80;;;;;;;0.40;100.00;94197.66;1052452;28;20057;-68
2021/01/31 01:18:27;;;;;;;16.93;13.90;;;;;;;0.35;100.00;94196.84;1052261;28;20085;-68
2021/01/31 01:18:58;;;;;;;16.73;14.67;;;;;;;0.35;100.00;94192.38;1052493;28;20061;-68
2021/01/31 01:19:28;;;;;;;14.87;13.20;;;;;;;0.39;100.00;94185.56;1052446;28;20049;-68
2021/01/31 01:19:59;;;;;;;15.33;13.47;;;;;;;0.37;100.00;94197.41;1052815;28;20109;-69
2021/01/31 01:20:29;;;;;;;15.70;13.10;;;;;;;0.42;100.00;94189.56;1052855;28;20016;-70
2021/01/31 01:21:00;;;;;;;14.97;12.70;;;;;;;0.45;100.00;94191.66;1052794;28;20008;-68
2021/01/31 01:21:30;;;;;;;17.43;14.70;;;;;;;0.37;100.00;94190.31;1052865;28;20012;-68
2021/01/31 01:22:01;;;;;;;16.43;14.23;;;;;;;0.40;100.00;94195.03;1053496;28;20016;-69
2021/01/31 01:22:31;;;;;;;16.73;14.30;;;;;;;0.38;100.00;94204.22;1054212;28;20023;-68
2021/01/31 01:23:02;;;;;;;17.70;15.03;;;;;;;0.36;100.00;94193.16;1056798;28;20050;-68
2021/01/31 01:23:32;;;;;;;18.03;15.33;;;;;;;0.35;100.00;94191.56;1057210;28;20008;-68
2021/01/31 01:24:03;;;;;;;17.17;12.43;;;;;;;0.28;100.00;94197.06;1056806;28;20011;-69
2021/01/31 01:24:33;;;;;;;17.73;14.70;;;;;;;0.27;100.00;94195.47;1057118;28;20032;-68
2021/01/31 01:25:05;;;;;;;20.17;16.03;;;;;;;0.29;100.00;94197.84;1053233;28;20362;-68
2021/01/31 01:25:36;;;;;;;19.30;15.20;;;;;;;0.33;100.00;94198.94;1053110;28;20465;-69
2021/01/31 01:26:06;;;;;;;16.83;14.17;;;;;;;0.31;100.00;94186.06;1052662;28;20016;-68
2021/01/31 01:26:36;;;;;;;18.60;15.17;;;;;;;0.34;100.00;94198.69;1053012;28;20102;-68
2021/01/31 01:27:07;;;;;;;18.57;15.10;;;;;;;0.40;100.00;94192.41;1057200;28;20373;-68
2021/01/31 01:27:37;;;;;;;17.67;14.63;;;;;;;0.39;100.00;94190.84;1056171;28;20472;-68
2021/01/31 01:28:08;;;;;;;17.43;14.30;;;;;;;0.40;100.00;94194.25;1052896;28;20031;-68
2021/01/31 01:28:38;;;;;;;18.33;15.27;;;;;;;0.46;100.00;94196.69;1053216;28;20429;-68
2021/01/31 01:29:09;;;;;;;19.33;15.30;;;;;;;0.40;100.00;94189.78;1057381;28;20027;-70
2021/01/31 01:29:40;;;;;;;19.20;15.23;;;;;;;0.40;100.00;94189.00;1057255;28;20078;-69
2021/01/31 01:30:14;;;;;;;20.77;16.25;;;;;;;0.33;100.00;94197.09;1057135;28;20421;-68
2021/01/31 01:30:44;;;;;;;19.95;14.65;;;;;;;0.35;100.00;94195.00;1064183;27;20007;-69
2021/01/31 01:31:15;;;;;;;21.17;16.33;;;;;;;0.38;100.00;94191.09;1061178;27;20019;-69
2021/01/31 01:31:45;;;;;;;20.60;15.70;;;;;;;0.35;100.00;94199.47;1061104;27;20367;-69
2021/01/31 01:32:16;;;;;;;19.03;14.90;;;;;;;0.34;100.00;94200.50;1061004;27;20492;-68
2021/01/31 01:32:46;;;;;;;18.40;14.63;;;;;;;0.34;100.00;94197.88;1054236;28;20012;-68
2021/01/31 01:33:16;;;;;;;18.57;15.70;;;;;;;0.30;100.00;94189.69;1057271;28;20465;-68
2021/01/31 01:33:47;;;;;;;19.53;15.67;;;;;;;0.23;100.00;94189.13;1057262;28;20007;-68
2021/01/31 01:34:17;;;;;;;21.80;16.70;;;;;;;0.24;100.00;94199.38;1057199;28;20035;-68
2021/01/31 01:34:48;;;;;;;21.87;17.63;;;;;;;0.26;100.00;94199.16;1055054;28;20019;-68
2021/01/31 01:35:18;;;;;;;22.37;17.73;;;;;;;0.25;100.00;94200.94;1052705;28;20016;-68
2021/01/31 01:35:49;;;;;;;17.90;15.97;;;;;;;0.28;100.00;94201.50;1052687;28;20012;-69
2021/01/31 01:36:19;;;;;;;20.40;16.77;;;;;;;0.31;100.00;94198.38;1051101;28;20019;-69
2021/01/31 01:36:49;;;;;;;19.47;16.90;;;;;;;0.31;100.00;94201.00;1054754;28;20024;-68
2021/01/31 01:37:20;;;;;;;20.13;16.53;;;;;;;0.27;100.00;94197.31;1055489;28;20480;-68
2021/01/31 01:37:51;;;;;;;18.90;15.67;;;;;;;0.23;100.00;94199.63;1048737;28;20024;-68
2021/01/31 01:38:21;;;;;;;18.75;15.80;;;;;;;0.20;100.00;94195.66;1048891;28;20054;-68
2021/01/31 01:38:52;;;;;;;19.23;16.00;;;;;;;0.24;100.00;94202.00;1053160;28;20073;-68
2021/01/31 01:39:22;;;;;;;18.37;15.77;;;;;;;0.27;100.00;94199.94;1057255;28;20012;-68
2021/01/31 01:39:53;;;;;;;18.43;16.13;;;;;;;0.27;100.00;94200.72;1057176;28;20015;-69
2021/01/31 01:40:32;;;;;;;17.97;14.90;;;;;;;0.31;100.00;94201.81;1057204;28;20023;-68
2021/01/31 01:41:02;;;;;;;17.90;15.57;;;;;;;0.24;100.00;94201.22;1053423;28;20019;-68
2021/01/31 01:41:43;;;;;;;17.17;14.83;;;;;;;0.26;100.00;94196.53;1052965;28;20400;-69
2021/01/31 01:42:13;;;;;;;19.05;15.70;;;;;;;0.28;100.00;94193.63;1052941;28;20012;-68
2021/01/31 01:42:44;;;;;;;18.53;15.63;;;;;;;0.29;100.00;94193.38;1053976;28;20024;-68
2021/01/31 01:43:16;;;;;;;20.63;17.23;;;;;;;0.29;100.00;94195.22;1057164;28;20397;-68
2021/01/31 01:43:50;;;;;;;19.25;15.63;;;;;;;0.34;100.00;94190.00;1057222;28;20016;-69
2021/01/31 01:44:21;;;;;;;17.98;14.90;;;;;;;0.34;100.00;94198.69;1057251;28;20019;-68
2021/01/31 01:44:51;;;;;;;18.30;15.40;;;;;;;0.37;100.00;94202.66;1054928;28;20019;-68
2021/01/31 01:45:22;;;;;;;18.47;15.40;;;;;;;0.33;100.00;94185.78;1052930;28;20065;-68
2021/01/31 01:46:16;;;;;;;21.90;17.63;;;;;;;0.25;100.00;94187.81;1052971;28;20042;-68
2021/01/31 01:46:48;;;;;;;18.88;14.98;;;;;;;0.28;100.00;94202.31;1054110;28;20020;-68
2021/01/31 01:47:22;;;;;;;17.38;13.70;;;;;;;0.27;100.00;94195.47;1060954;27;20089;-68
2021/01/31 01:47:54;;;;;;;19.00;15.35;;;;;;;0.23;100.00;94189.91;1060988;27;20411;-68
2021/01/31 01:48:24;;;;;;;18.40;15.02;;;;;;;0.27;100.00;94192.06;1061138;27;20018;-69
2021/01/31 01:48:59;;;;;;;19.60;15.63;;;;;;;0.21;100.00;94199.09;1057733;27;20015;-69
2021/01/31 01:49:32;;;;;;;21.75;17.23;;;;;;;0.20;100.00;94200.13;1056934;28;20030;-69
2021/01/31 01:50:11;;;;;;;20.98;16.73;;;;;;;0.23;100.00;94194.38;1048423;28;20017;-69
2021/01/31 01:50:46;;;;;;;20.27;16.15;;;;;;;0.24;100.00;94193.31;1045073;28;20021;-69
2021/01/31 01:51:17;;;;;;;18.98;15.80;;;;;;;0.27;100.00;94198.09;1044260;28;20432;-69
2021/01/31 01:52:01;;;;;;;20.90;16.80;;;;;;;0.30;100.00;94196.78;1038520;28;20029;-69
2021/01/31 01:52:35;;;;;;;21.60;16.95;;;;;;;0.31;100.00;94196.56;1045948;28;20032;-69
2021/01/31 01:53:06;;;;;;;19.42;15.52;;;;;;;0.28;100.00;94193.63;1044329;28;20353;-70
2021/01/31 01:53:36;;;;;;;19.50;15.70;;;;;;;0.32;100.00;94198.16;1042712;28;20072;-69
2021/01/31 01:54:07;;;;;;;17.90;16.00;;;;;;;0.31;100.00;94193.94;1046884;28;20047;-69
2021/01/31 01:54:40;;;;;;;17.30;15.10;;;;;;;0.34;100.00;94190.78;1044447;28;20021;-69
2021/01/31 01:55:12;;;;;;;24.15;16.75;;;;;;;0.34;100.00;94203.94;1043608;28;20478;-69
2021/01/31 01:55:50;;;;;;;19.90;16.85;;;;;;;0.29;100.00;94200.47;1049077;28;20084;-69
2021/01/31 01:56:25;;;;;;;18.67;16.13;;;;;;;0.36;100.00;94201.03;1049958;28;20028;-69
2021/01/31 01:56:59;;;;;;;17.70;15.02;;;;;;;0.39;100.00;94203.97;1044325;28;20063;-69
2021/01/31 01:57:36;;;;;;;17.48;15.25;;;;;;;0.42;100.00;94197.44;1038296;28;20105;-69
2021/01/31 01:58:11;;;;;;;18.08;15.20;;;;;;;0.40;100.00;94192.41;1042248;28;20047;-69
2021/01/31 01:58:42;;;;;;;19.90;16.23;;;;;;;0.41;100.00;94198.47;1042260;28;20016;-69
2021/01/31 01:59:13;;;;;;;20.77;15.57;;;;;;;0.43;100.00;94194.56;1042072;28;20021;-68
2021/01/31 01:59:43;;;;;;;22.63;16.85;;;;;;;0.35;100.00;94195.00;1048406;28;20460;-68
2021/01/31 02:00:14;;;;;;;19.53;15.53;;;;;;;0.36;100.00;94198.41;1052302;28;20086;-69
2021/01/31 02:00:44;;;;;;;18.03;15.57;;;;;;;0.40;100.00;94192.41;1056512;28;20118;-69
2021/01/31 02:01:16;;;;;;;19.30;17.00;;;;;;;0.38;100.00;94188.47;1044015;28;20088;-69
2021/01/31 02:01:53;;;;;;;19.30;16.48;;;;;;;0.38;100.00;94198.97;1039868;28;20096;-69
2021/01/31 02:02:38;;;;;;;18.50;14.98;;;;;;;0.33;100.00;94197.09;1033242;28;20045;-69
2021/01/31 02:03:12;;;;;;;18.58;15.93;;;;;;;0.35;100.00;94189.75;1049355;28;20416;-69
2021/01/31 02:03:42;;;;;;;19.88;16.35;;;;;;;0.37;100.00;94197.41;1047724;28;20530;-69
2021/01/31 02:04:13;;;;;;;20.30;17.00;;;;;;;0.34;100.00;94201.31;1048396;28;20027;-70
2021/01/31 02:04:43;;;;;;;20.10;16.10;;;;;;;0.32;100.00;94202.59;1055743;28;20024;-69
2021/01/31 02:05:14;;;;;;;22.40;17.60;;;;;;;0.29;100.00;94203.88;1052934;28;20008;-69
2021/01/31 02:05:47;;;;;;;25.85;16.95;;;;;;;0.33;100.00;94201.56;1056748;28;20469;-69
2021/01/31 02:06:22;;;;;;;19.02;16.55;;;;;;;0.35;100.00;94202.88;1048369;28;20024;-69
2021/01/31 02:06:53;;;;;;;19.15;16.52;;;;;;;0.39;100.00;94206.59;1048245;28;20013;-69
2021/01/31 02:07:23;;;;;;;21.30;17.40;;;;;;;0.40;100.00;94200.31;1049581;28;20485;-69
2021/01/31 02:07:54;;;;;;;19.50;16.27;;;;;;;0.42;100.00;94206.13;1053536;28;20036;-69
2021/01/31 02:08:24;;;;;;;20.30;17.07;;;;;;;0.40;100.00;94200.31;1056894;28;20038;-69
2021/01/31 02:08:55;;;;;;;16.80;15.00;;;;;;;0.43;100.00;94202.44;1056879;28;20456;-69
2021/01/31 02:09:26;;;;;;;17.08;14.55;;;;;;;0.46;100.00;94199.31;1056729;28;20517;-69
2021/01/31 02:09:57;;;;;;;16.45;13.68;;;;;;;0.44;100.00;94197.97;1056841;28;20020;-69
2021/01/31 02:10:27;;;;;;;16.43;14.63;;;;;;;0.45;100.00;94212.69;1057105;28;20028;-69
2021/01/31 02:10:57;;;;;;;19.87;16.87;;;;;;;0.35;100.00;94205.50;1056865;28;20073;-69
2021/01/31 02:11:28;;;;;;;16.47;14.17;;;;;;;0.28;100.00;94207.56;1056860;28;20035;-69
2021/01/31 02:11:59;;;;;;;18.10;15.03;;;;;;;0.35;100.00;94209.97;1056597;28;20036;-69
2021/01/31 02:12:30;;;;;;;18.75;15.68;;;;;;;0.32;100.00;94210.50;1056124;28;20011;-69
2021/01/31 02:13:01;;;;;;;19.30;16.07;;;;;;;0.29;100.00;94213.59;1049524;28;20485;-69
2021/01/31 02:13:32;;;;;;;19.85;16.67;;;;;;;0.29;100.00;94205.72;1044388;28;20422;-69
2021/01/31 02:14:05;;;;;;;19.00;16.20;;;;;;;0.31;100.00;94211.50;1044501;28;20021;-69
2021/01/31 02:14:36;;;;;;;21.45;17.33;;;;;;;0.29;100.00;94205.72;1043513;28;20163;-69
2021/01/31 02:15:07;;;;;;;21.73;16.87;;;;;;;0.25;100.00;94208.84;1040818;28;20455;-69
2021/01/31 02:15:37;;;;;;;19.50;16.40;;;;;;;0.25;100.00;94208.84;1048347;28;20028;-69
2021/01/31 02:16:12;;;;;;;19.13;16.03;;;;;;;0.27;100.00;94213.06;1049019;28;20017;-68
2021/01/31 02:17:07;;;;;;;19.13;16.20;;;;;;;0.29;100.00;94214.41;1048440;28;20502;-69
2021/01/31 02:17:59;;;;;;;18.67;15.65;;;;;;;0.34;100.00;94211.03;1044392;28;20020;-69
2021/01/31 02:18:55;;;;;;;18.95;15.32;;;;;;;0.32;100.00;94202.59;1048908;28;20017;-69
2021/01/31 02:19:55;;;;;;;20.30;15.60;;;;;;;0.31;100.00;94211.50;1048196;28;20121;-69
2021/01/31 02:20:45;;;;;;;15.25;13.00;;;;;;;0.38;100.00;94209.50;1044436;28;20021;-69
2021/01/31 02:21:47;;;;;;;17.80;14.82;;;;;;;0.22;100.00;94213.81;1048396;28;20032;-69
2021/01/31 02:22:27;;;;;;;20.83;16.00;;;;;;;0.19;100.00;94203.78;1046974;28;20497;-69
2021/01/31 02:23:31;;;;;;;22.27;17.30;;;;;;;0.11;100.00;94204.25;1048339;28;20484;-68
2021/01/31 02:24:11;;;;;;;21.35;16.48;;;;;;;0.11;100.00;94205.03;1052126;28;20095;-69
2021/01/31 02:25:16;;;;;;;19.85;15.80;;;;;;;0.13;100.00;94200.31;1052623;28;20023;-70
2021/01/31 02:26:01;;;;;;;19.13;14.90;;;;;;;0.14;100.00;94199.28;1058590;28;20261;-71
2021/01/31 02:26:58;;;;;;;16.15;13.00;;;;;;;0.13;100.00;94202.16;1058165;28;20444;-69
2021/01/31 02:27:45;;;;;;;18.65;15.20;;;;;;;0.14;100.00;94201.13;1051006;28;20079;-69
2021/01/31 02:28:18;;;;;;;16.80;13.75;;;;;;;0.11;100.00;94197.16;1049369;28;20031;-69
2021/01/31 02:29:07;;;;;;;19.75;14.63;;;;;;;0.06;100.00;94209.47;1048458;28;20025;-69
2021/01/31 02:30:20;;;;;;;20.38;16.58;;;;;;;0.09;100.00;94211.56;1048712;28;20077;-69